Larksville, Pennsylvania
Current Conditions -  °F | °C
As of 12:54 AM on Saturday 20 Dec 2014 (Local Time) from KAVP Reporting Station
Overcast Overcast  
Wind Chill: 19°   Ceiling: 1800
Heat Index: 29°   Visibility: 10mi
Dew Point: 19°   Wind: 13mph
Humidity: 67%   Direction: 10°N
Pressure: 30.17"   Gusts: NA
Location:  41.2768°N, 75.8997°W
Report Text: KAVP 200554Z AUTO 01011KT 10SM OVC018 M02/M07 A3017 RMK AO2 SLP225 T10171072 11011 21017 50000
Loading
Personal Weather Stations






























Interactive Weather Map New forecast layout! Learn more

10-Day Weather Forecast

Advertisements
Track Severe Weather on mobile